Flight Track Log - Related Links

Times and Time Zones

All times are in EDT time to prevent confusion due to time zone crossing. See the N960DL flight status page for this flight to view local times or setup timezone preferences in your user account.

Time Position Orientation Groundspeed Altitude Reporting Facility
EDT Latitude Longitude Course Direction KTS MPH feet Rate Location/Type
Mon 07:22:24 PM 39.0500 -84.6833 211° Southwest 154 177 1,600  Level Cincinnati TRACON
Mon 07:23:06 PM 39.0500 -84.7333 270° West 191 220 2,600 2,471 Climbing Cincinnati TRACON
Mon 07:24:06 PM 39.0500 -84.8167 270° West 260 299 5,800 3,074 Climbing Cincinnati TRACON
Mon 07:25:00 PM 38.7410 -84.7706 212° Southwest  Level FlightAware Approximate
Mon 07:25:07 PM 39.0100 -84.8944 237° Southwest 274 315 8,800  Level Indianapolis Center
Mon 07:26:00 PM 38.6528 -84.8405 211° Southwest  Level FlightAware Approximate
Mon 07:26:08 PM 38.9169 -84.8739 170° South 312 359 11,200  Level Indianapolis Center
Mon 07:27:00 PM 38.5641 -84.9094 211° Southwest  Level FlightAware Approximate
Mon 07:27:10 PM 38.8192 -84.8881 186° South 390 449 13,000  Level Indianapolis Center
Mon 07:28:12 PM 38.7067 -84.9172 191° South 411 473 16,000 2,855 Climbing Indianapolis Center
Mon 07:29:14 PM 38.5864 -84.9494 192° South 415 478 18,900 2,390 Climbing Indianapolis Center
Mon 07:30:15 PM 38.4681 -84.9833 193° South 430 495 20,900 2,049 Climbing Indianapolis Center
Mon 07:31:17 PM 38.3522 -85.0453 203° Southwest 454 522 23,100 2,274 Climbing Indianapolis Center
Mon 07:32:19 PM 38.2411 -85.1661 221° Southwest 453 521 25,600 2,274 Climbing Indianapolis Center
Mon 07:33:21 PM 38.1461 -85.2517 215° Southwest 447 514 27,800 2,098 Climbing Indianapolis Center
Mon 07:34:22 PM 38.0503 -85.3500 219° Southwest 442 509 29,900 1,756 Climbing Indianapolis Center
Mon 07:35:24 PM 37.9539 -85.4456 218° Southwest 438 504 31,400 1,403 Climbing Indianapolis Center
Mon 07:36:26 PM 37.8594 -85.5411 219° Southwest 433 498 32,800 780 Climbing Indianapolis Center
Mon 07:37:27 PM 37.7636 -85.6381 219° Southwest 437 503 33,000 98 Climbing Indianapolis Center
Mon 07:38:29 PM 37.6486 -85.7511 218° Southwest 435 501 33,000  Level Indianapolis Center
Mon 07:39:31 PM 37.5514 -85.8436 217° Southwest 434 499 33,000  Level Indianapolis Center
Mon 07:40:33 PM 37.4636 -85.9292 218° Southwest 437 503 33,000  Level Indianapolis Center
Mon 07:41:34 PM 37.3661 -86.0233 218° Southwest 437 503 33,000  Level Indianapolis Center
Mon 07:42:36 PM 37.2528 -86.1331 218° Southwest 437 503 33,000  Level Indianapolis Center
Mon 07:43:21 PM 37.1892 -86.1936 217° Southwest 446 513 33,000  Level Memphis Center
Mon 07:44:21 PM 37.0750 -86.2750 210° Southwest 441 507 33,000  Level Memphis Center
Mon 07:45:21 PM 36.9506 -86.2864 184° South 432 497 33,000  Level Memphis Center
Mon 07:46:21 PM 36.8278 -86.2928 182° South 451 519 33,000  Level Memphis Center
Mon 07:47:21 PM 36.7008 -86.2992 182° South 451 519 33,000  Level Memphis Center
Mon 07:48:21 PM 36.5781 -86.3078 183° South 451 519 33,000  Level Memphis Center
Mon 07:49:21 PM 36.4533 -86.3167 183° South 451 519 33,000  Level Memphis Center
Mon 07:50:21 PM 36.3286 -86.3256 183° South 456 525 33,000  Level Memphis Center
Mon 07:51:21 PM 36.2142 -86.3339 183° South 456 525 33,000  Level Memphis Center
Mon 07:52:21 PM 36.0914 -86.3422 183° South 456 525 33,000  Level Memphis Center
Mon 07:53:21 PM 35.9678 -86.3175 171° South 456 525 33,000  Level Memphis Center
Mon 07:54:21 PM 35.8550 -86.2567 156° South 449 517 33,000  Level Memphis Center
Mon 07:56:55 PM 35.5531 -86.0886 156° South 440 506 33,000  Level Atlanta Center
Mon 07:57:55 PM 35.4622 -86.0403 157° South 445 512 33,000  Level Atlanta Center
Mon 07:58:55 PM 35.3358 -85.9736 157° South 445 512 33,000  Level Atlanta Center
Mon 07:59:55 PM 35.2117 -85.9072 156° South 450 518 33,000  Level Atlanta Center
Mon 08:00:55 PM 35.1019 -85.8464 156° South 450 518 33,000  Level Atlanta Center
Mon 08:01:55 PM 34.9925 -85.7653 149° Southeast 445 512 33,000  Level Atlanta Center
Mon 08:02:55 PM 34.8894 -85.6847 147° Southeast 445 512 33,000  Level Atlanta Center
Mon 08:03:55 PM 34.7839 -85.6042 148° Southeast 445 512 33,000 -1,150 Level Atlanta Center
Mon 08:04:55 PM 34.6828 -85.5214 146° Southeast 445 512 30,700 -2,800 Descending Atlanta Center
Mon 08:05:55 PM 34.5772 -85.4389 147° Southeast 450 518 27,400 -3,100 Descending Atlanta Center
Mon 08:06:55 PM 34.4717 -85.3592 148° Southeast 450 518 24,500 -2,650 Descending Atlanta Center
Mon 08:07:55 PM 34.3725 -85.2769 146° Southeast 450 518 22,100 -2,540 Descending Atlanta Center
Mon 08:09:38 PM 34.2000 -85.1500 149° Southeast 405 466 17,600 -2,550 Descending Atlanta TRACON
Mon 08:09:55 PM 34.1797 -85.1286 139° Southeast 416 479 17,000 -2,416 Descending Atlanta Center
Mon 08:10:55 PM 34.1033 -85.0397 136° Southeast 391 450 14,500 -2,150 Descending Atlanta Center
Mon 08:11:55 PM 34.0308 -84.9461 133° Southeast 381 438 12,700 -1,250 Descending Atlanta Center
Mon 08:12:55 PM 33.9586 -84.8553 134° Southeast 376 433 12,000 -350 Descending Atlanta Center
Mon 08:13:55 PM 33.8861 -84.7694 135° Southeast 371 427 12,000  Level Atlanta Center
Mon 08:14:32 PM 33.8333 -84.7000 132° Southeast 371 427 12,000  Level Atlanta TRACON
Mon 08:15:33 PM 33.7667 -84.6167 134° Southeast 330 380 12,000 -50 Level Atlanta TRACON
Mon 08:16:32 PM 33.7333 -84.5500 121° Southeast 272 313 11,900 -796 Descending Atlanta TRACON
Mon 08:17:26 PM 33.7333 -84.4667 90° East 253 291 10,500 -2,000 Descending Atlanta TRACON
Mon 08:18:32 PM 33.7333 -84.3833 90° East 251 289 7,900 -2,333 Descending Atlanta TRACON
Mon 08:19:32 PM 33.7333 -84.3000 90° East 240 276 5,600 -1,900 Descending Atlanta TRACON
Mon 08:20:32 PM 33.6833 -84.2500 140° Southeast 222 255 4,100 -1,500 Descending Atlanta TRACON

Login

Don't have an account? Register now (free) for customized features, flight alerts, and more!